createdAt,value
2019-04-14T00:01:39.115Z,90.60
2019-04-14T00:04:22.671Z,90.60
2019-04-14T00:06:50.461Z,90.60
2019-04-14T00:09:20.459Z,90.70
2019-04-14T00:11:48.176Z,90.70
2019-04-14T00:14:16.396Z,90.70
2019-04-14T00:16:44.593Z,90.80
2019-04-14T00:19:12.994Z,90.80
2019-04-14T00:21:41.108Z,90.80
2019-04-14T00:24:09.487Z,90.90
2019-04-14T00:26:37.921Z,90.90
2019-04-14T00:29:06.708Z,90.90
2019-04-14T00:31:34.910Z,91.00
2019-04-14T00:34:07.115Z,91.10
2019-04-14T00:36:41.644Z,91.10
2019-04-14T00:39:29.400Z,91.10
2019-04-14T00:42:06.584Z,91.10
2019-04-14T00:44:43.026Z,91.10
2019-04-14T00:47:31.046Z,91.20
2019-04-14T00:49:59.408Z,91.20
2019-04-14T00:52:27.621Z,91.20
2019-04-14T00:54:55.080Z,91.30
2019-04-14T00:57:22.476Z,91.30
2019-04-14T00:59:50.789Z,91.40
2019-04-14T01:02:18.922Z,91.40
2019-04-14T01:04:46.938Z,91.40
2019-04-14T01:07:15.158Z,91.50
2019-04-14T01:09:42.636Z,91.50
2019-04-14T01:12:10.292Z,91.60
2019-04-14T01:14:38.789Z,91.60
2019-04-14T01:17:06.937Z,91.60
2019-04-14T01:19:35.241Z,91.50
2019-04-14T01:22:03.209Z,91.50
2019-04-14T01:24:31.554Z,91.50
2019-04-14T01:26:59.526Z,91.50
2019-04-14T01:29:27.701Z,91.40
2019-04-14T01:31:55.799Z,91.40
2019-04-14T01:34:23.841Z,91.40
2019-04-14T01:36:51.832Z,91.30
2019-04-14T01:39:19.769Z,91.30
2019-04-14T01:41:47.802Z,91.20
2019-04-14T01:44:15.614Z,91.20
2019-04-14T01:46:43.461Z,91.20
2019-04-14T01:49:11.499Z,91.10
2019-04-14T01:52:08.163Z,91.00
2019-04-14T01:54:49.392Z,91.00
2019-04-14T01:57:35.016Z,91.20
2019-04-14T02:00:31.609Z,90.80
2019-04-14T02:02:59.726Z,90.70
2019-04-14T02:05:27.765Z,90.70
2019-04-14T02:07:55.880Z,90.70
2019-04-14T02:10:23.865Z,90.70
2019-04-14T02:12:51.799Z,90.70
2019-04-14T02:15:20.049Z,90.70
2019-04-14T02:17:48.145Z,90.60
2019-04-14T02:20:16.363Z,90.60
2019-04-14T02:22:44.095Z,90.60
2019-04-14T02:25:12.097Z,90.60
2019-04-14T02:27:40.672Z,90.50
2019-04-14T02:30:10.254Z,90.60
2019-04-14T02:33:07.396Z,90.50
2019-04-14T02:35:40.540Z,90.50
2019-04-14T02:38:13.705Z,90.50
2019-04-14T02:40:36.548Z,90.50
2019-04-14T02:45:35.326Z,90.50
2019-04-14T02:48:03.612Z,90.50
2019-04-14T02:50:27.212Z,90.50
2019-04-14T02:53:01.856Z,90.50
2019-04-14T02:55:25.300Z,90.50
2019-04-14T02:58:01.757Z,90.40
2019-04-14T03:00:41.200Z,90.40
2019-04-14T03:02:47.523Z,90.30
2019-04-14T03:05:32.176Z,90.30
2019-04-14T03:07:54.178Z,90.20
2019-04-14T03:10:27.658Z,90.20
2019-04-14T03:13:01.722Z,90.20
2019-04-14T03:18:20.405Z,90.20
2019-04-14T03:20:47.488Z,90.20
2019-04-14T03:23:53.499Z,90.30
2019-04-14T03:26:11.979Z,90.30
2019-04-14T03:36:44.144Z,90.30
2019-04-14T03:38:50.233Z,90.30
2019-04-14T03:41:17.160Z,90.30
2019-04-14T03:43:38.829Z,90.30
2019-04-14T03:46:17.446Z,90.40
2019-04-14T03:48:55.536Z,90.40
2019-04-14T03:51:26.247Z,90.40
2019-04-14T03:53:38.661Z,90.40
2019-04-14T03:56:20.050Z,90.40
2019-04-14T03:58:48.668Z,90.40
2019-04-14T04:01:17.180Z,90.30
2019-04-14T04:03:45.685Z,90.30
2019-04-14T04:06:13.945Z,90.40
2019-04-14T04:08:42.050Z,90.40
2019-04-14T04:11:10.468Z,90.40
2019-04-14T04:13:38.993Z,90.40
2019-04-14T04:16:15.898Z,90.40
2019-04-14T04:18:50.875Z,90.40
2019-04-14T04:21:29.803Z,90.40
2019-04-14T04:24:02.138Z,90.50
2019-04-14T04:26:36.578Z,90.40
2019-04-14T04:29:29.339Z,90.50
2019-04-14T04:32:16.460Z,90.50
2019-04-14T04:34:57.516Z,90.40
2019-04-14T04:37:30.139Z,90.30
2019-04-14T04:40:00.659Z,90.30
2019-04-14T04:42:28.694Z,90.40
2019-04-14T04:44:56.077Z,90.30
2019-04-14T04:47:23.640Z,90.30
2019-04-14T04:49:51.217Z,90.30
2019-04-14T04:52:19.134Z,90.40
2019-04-14T04:54:47.402Z,90.60
2019-04-14T04:57:15.547Z,90.70
2019-04-14T04:59:43.121Z,90.70
2019-04-14T05:02:11.265Z,90.90
2019-04-14T05:04:39.418Z,91.10
2019-04-14T05:07:07.777Z,91.30
2019-04-14T05:09:53.475Z,91.40
2019-04-14T05:12:39.270Z,91.60
2019-04-14T05:15:27.030Z,91.80
2019-04-14T05:17:54.400Z,91.80
2019-04-14T05:20:22.475Z,91.90
2019-04-14T05:22:50.807Z,92.00
2019-04-14T05:25:18.993Z,92.00
2019-04-14T05:27:47.355Z,92.20
2019-04-14T05:30:15.411Z,92.20
2019-04-14T05:32:43.454Z,92.30
2019-04-14T05:35:11.930Z,92.30
2019-04-14T05:37:40.087Z,92.40
2019-04-14T05:40:08.146Z,92.40
2019-04-14T05:42:36.248Z,92.40
2019-04-14T05:45:04.476Z,92.50
2019-04-14T05:47:32.611Z,92.60
2019-04-14T05:50:00.915Z,92.60
2019-04-14T05:52:29.488Z,92.60
2019-04-14T05:54:57.874Z,92.60
2019-04-14T05:57:26.236Z,92.60
2019-04-14T05:59:54.756Z,92.60
2019-04-14T06:02:22.318Z,92.60
2019-04-14T06:04:50.407Z,92.60
2019-04-14T06:07:17.636Z,92.60
2019-04-14T06:09:44.916Z,92.50
2019-04-14T06:12:12.126Z,92.40
2019-04-14T06:14:39.388Z,92.30
2019-04-14T06:17:06.580Z,92.30
2019-04-14T06:19:38.025Z,92.30
2019-04-14T06:22:02.952Z,92.30
2019-04-14T06:24:30.257Z,92.20
2019-04-14T06:26:57.909Z,92.10
2019-04-14T06:29:25.096Z,92.00
2019-04-14T06:32:14.753Z,91.90
2019-04-14T06:35:10.376Z,91.80
2019-04-14T06:38:06.093Z,91.60
2019-04-14T06:40:37.618Z,91.30
2019-04-14T06:43:04.956Z,91.00
2019-04-14T06:45:32.166Z,90.80
2019-04-14T06:47:59.363Z,90.60
2019-04-14T06:50:26.557Z,90.40
2019-04-14T06:52:53.761Z,90.10
2019-04-14T06:55:21.077Z,89.80
2019-04-14T06:57:48.293Z,88.90
2019-04-14T07:00:15.630Z,88.20
2019-04-14T07:02:42.834Z,88.00
2019-04-14T07:05:10.044Z,87.70
2019-04-14T07:07:37.360Z,87.50
2019-04-14T07:10:04.847Z,87.00
2019-04-14T07:12:32.157Z,86.70
2019-04-14T07:14:59.366Z,86.40
2019-04-14T07:17:26.693Z,86.00
2019-04-14T07:20:01.980Z,85.60
2019-04-14T07:22:23.234Z,85.10
2019-04-14T07:24:50.554Z,84.70
2019-04-14T07:27:18.382Z,84.30
2019-04-14T07:29:50.758Z,84.30
2019-04-14T07:32:46.111Z,84.00
2019-04-14T07:35:31.504Z,83.70
2019-04-14T07:38:16.052Z,83.10
2019-04-14T07:41:02.917Z,82.70
2019-04-14T07:43:37.232Z,82.20
2019-04-14T07:46:36.167Z,81.50
2019-04-14T07:49:12.188Z,81.20
2019-04-14T07:51:52.209Z,80.60
2019-04-14T07:54:25.457Z,80.10
2019-04-14T07:57:27.213Z,80.00
2019-04-14T08:00:16.744Z,79.30
2019-04-14T08:02:51.251Z,79.10
2019-04-14T08:05:22.199Z,77.60
2019-04-14T08:07:50.258Z,76.60
2019-04-14T08:10:17.465Z,75.30
2019-04-14T08:12:45.097Z,74.80
2019-04-14T08:15:12.527Z,73.80
2019-04-14T08:17:39.749Z,72.90
2019-04-14T08:20:07.234Z,72.00
2019-04-14T08:22:34.559Z,69.80
2019-04-14T08:25:01.871Z,69.00
2019-04-14T08:27:29.168Z,68.30
2019-04-14T08:29:56.513Z,67.30
2019-04-14T08:32:23.805Z,66.80
2019-04-14T08:34:51.003Z,65.90
2019-04-14T08:37:18.208Z,65.10
2019-04-14T08:39:45.444Z,64.00
2019-04-14T08:42:30.748Z,63.20
2019-04-14T08:45:01.321Z,62.00
2019-04-14T08:47:53.765Z,61.00
2019-04-14T08:50:41.285Z,61.20
2019-04-14T08:53:12.192Z,59.50
2019-04-14T08:56:01.772Z,58.50
2019-04-14T08:58:51.429Z,58.20
2019-04-14T09:01:36.423Z,56.70
2019-04-14T09:04:17.998Z,56.20
2019-04-14T09:07:10.436Z,55.50
2019-04-14T09:09:46.565Z,55.00
2019-04-14T09:12:20.009Z,54.40
2019-04-14T09:14:56.954Z,54.10
2019-04-14T09:17:16.502Z,53.80
2019-04-14T09:19:43.813Z,52.80
2019-04-14T09:22:11.137Z,51.70
2019-04-14T09:24:38.345Z,50.80
2019-04-14T09:27:05.659Z,50.20
2019-04-14T09:29:32.891Z,49.10
2019-04-14T09:32:00.441Z,48.80
2019-04-14T09:34:27.748Z,48.20
2019-04-14T09:36:55.162Z,47.10
2019-04-14T09:39:22.499Z,46.30
2019-04-14T09:41:49.787Z,45.80
2019-04-14T09:44:16.981Z,44.70
2019-04-14T09:46:44.293Z,42.80
2019-04-14T09:49:11.601Z,40.10
2019-04-14T09:51:38.939Z,37.40
2019-04-14T09:54:06.129Z,35.10
2019-04-14T09:56:33.433Z,35.00
2019-04-14T09:59:00.745Z,33.90
2019-04-14T10:01:28.177Z,33.30
2019-04-14T10:03:55.498Z,32.90
2019-04-14T10:06:22.801Z,31.50
2019-04-14T10:08:50.137Z,30.30
2019-04-14T10:11:17.409Z,29.30
2019-04-14T10:13:44.621Z,28.50
2019-04-14T10:16:11.821Z,28.60
2019-04-14T10:18:39.043Z,27.80
2019-04-14T10:21:16.817Z,26.60
2019-04-14T10:23:35.497Z,25.30
2019-04-14T10:26:02.876Z,24.60
2019-04-14T10:28:30.061Z,25.10
2019-04-14T10:30:57.841Z,25.40
2019-04-14T10:33:25.071Z,25.60
2019-04-14T10:35:52.579Z,25.60
2019-04-14T10:38:19.885Z,25.60
2019-04-14T10:40:47.105Z,25.80
2019-04-14T10:43:14.419Z,26.00
2019-04-14T10:45:41.745Z,25.50
2019-04-14T10:48:09.058Z,24.70
2019-04-14T10:50:36.275Z,24.50
2019-04-14T10:53:03.697Z,25.10
2019-04-14T10:55:31.009Z,26.10
2019-04-14T10:57:58.221Z,26.60
2019-04-14T11:00:25.564Z,26.50
2019-04-14T11:02:52.776Z,25.80
2019-04-14T11:05:20.073Z,24.90
2019-04-14T11:07:47.404Z,24.30
2019-04-14T11:10:14.829Z,24.70
2019-04-14T11:12:42.053Z,25.00
2019-04-14T11:15:09.785Z,24.00
2019-04-14T11:17:37.092Z,23.40
2019-04-14T11:20:05.063Z,23.00
2019-04-14T11:22:32.261Z,22.50
2019-04-14T11:24:59.594Z,21.70
2019-04-14T11:27:26.914Z,21.10
2019-04-14T11:29:54.207Z,21.50
2019-04-14T11:32:56.112Z,21.30
2019-04-14T11:35:27.097Z,21.30
2019-04-14T11:38:01.824Z,21.90
2019-04-14T11:40:34.670Z,21.70
2019-04-14T11:43:02.097Z,21.80
2019-04-14T11:45:29.469Z,22.30
2019-04-14T11:47:56.710Z,22.60
2019-04-14T11:50:24.023Z,23.60
2019-04-14T11:52:51.222Z,24.60
2019-04-14T11:55:18.444Z,25.20
2019-04-14T11:57:45.671Z,25.70
2019-04-14T12:00:33.132Z,25.80
2019-04-14T12:03:19.269Z,26.30
2019-04-14T12:06:04.714Z,26.40
2019-04-14T12:08:45.592Z,26.70
2019-04-14T12:11:13.040Z,27.20
2019-04-14T12:13:40.373Z,27.90
2019-04-14T12:16:07.684Z,28.60
2019-04-14T12:18:35.056Z,29.30
2019-04-14T12:21:02.262Z,30.00
2019-04-14T12:23:29.574Z,30.40
2019-04-14T12:26:05.263Z,30.90
2019-04-14T12:28:26.256Z,31.40
2019-04-14T12:30:53.542Z,31.90
2019-04-14T12:33:20.842Z,32.00
2019-04-14T12:35:48.038Z,32.40
2019-04-14T12:38:15.346Z,32.80
2019-04-14T12:40:42.575Z,33.00
2019-04-14T12:43:28.284Z,32.90
2019-04-14T12:46:13.533Z,33.00
2019-04-14T12:48:54.771Z,32.20
2019-04-14T12:51:50.974Z,31.50
2019-04-14T12:54:18.283Z,31.30
2019-04-14T12:56:45.588Z,31.70
2019-04-14T12:59:18.690Z,31.80
2019-04-14T13:02:06.218Z,31.60
2019-04-14T13:04:33.536Z,31.90
2019-04-14T13:07:00.835Z,32.20
2019-04-14T13:09:28.200Z,32.00
2019-04-14T13:11:55.533Z,31.40
2019-04-14T13:14:22.826Z,31.70
2019-04-14T13:16:50.141Z,31.90
2019-04-14T13:19:17.462Z,32.20
2019-04-14T13:21:44.683Z,32.60
2019-04-14T13:24:12.232Z,33.00
2019-04-14T13:26:39.537Z,33.10
2019-04-14T13:29:06.829Z,33.00
2019-04-14T13:31:34.132Z,33.00
2019-04-14T13:34:01.420Z,33.00
2019-04-14T13:36:28.677Z,33.20
2019-04-14T13:38:55.968Z,33.10
2019-04-14T13:41:23.266Z,33.30
2019-04-14T13:43:50.464Z,33.60
2019-04-14T13:46:17.767Z,34.00
2019-04-14T13:48:45.084Z,34.30
2019-04-14T13:51:12.399Z,34.70
2019-04-14T13:53:39.633Z,34.20
2019-04-14T13:56:06.961Z,34.30
2019-04-14T13:58:37.095Z,34.30
2019-04-14T14:01:03.621Z,34.30
2019-04-14T14:03:30.835Z,34.10
2019-04-14T14:05:58.192Z,34.10
2019-04-14T14:08:25.493Z,34.20
2019-04-14T14:10:56.329Z,34.10
2019-04-14T14:13:43.145Z,34.90
2019-04-14T14:16:30.488Z,35.90
2019-04-14T14:19:08.715Z,36.10
2019-04-14T14:21:49.751Z,35.70
2019-04-14T14:24:45.364Z,35.50
2019-04-14T14:27:12.723Z,35.80
2019-04-14T14:29:40.013Z,35.90
2019-04-14T14:32:14.080Z,36.10
2019-04-14T14:34:41.378Z,36.20
2019-04-14T14:37:08.691Z,36.40
2019-04-14T14:39:36.092Z,36.60
2019-04-14T14:42:03.408Z,36.90
2019-04-14T14:44:38.412Z,37.30
2019-04-14T14:47:14.306Z,37.30
2019-04-14T14:49:59.380Z,37.40
2019-04-14T14:52:26.596Z,37.80
2019-04-14T14:54:53.890Z,38.20
2019-04-14T14:57:21.216Z,38.70
2019-04-14T14:59:48.544Z,38.60
2019-04-14T15:02:15.866Z,38.30
2019-04-14T15:04:43.263Z,38.00
2019-04-14T15:07:10.577Z,37.70
2019-04-14T15:09:37.791Z,37.40
2019-04-14T15:12:05.004Z,37.30
2019-04-14T15:14:32.282Z,37.40
2019-04-14T15:16:59.687Z,37.60
2019-04-14T15:19:26.885Z,37.70
2019-04-14T15:21:54.146Z,38.00
2019-04-14T15:24:21.460Z,38.20
2019-04-14T15:26:48.758Z,38.10
2019-04-14T15:29:16.160Z,37.80
2019-04-14T15:31:43.534Z,37.50
2019-04-14T15:34:10.908Z,37.10
2019-04-14T15:36:38.112Z,36.60
2019-04-14T15:39:06.753Z,36.50
2019-04-14T15:41:34.074Z,36.60
2019-04-14T15:44:01.397Z,36.70
2019-04-14T15:46:28.609Z,36.70
2019-04-14T15:48:55.897Z,36.80
2019-04-14T15:51:23.188Z,36.90
2019-04-14T15:53:50.481Z,36.90
2019-04-14T15:56:29.765Z,37.10
2019-04-14T15:59:05.112Z,37.20
2019-04-14T16:01:50.218Z,37.50
2019-04-14T16:04:37.051Z,37.80
2019-04-14T16:07:32.721Z,38.50
2019-04-14T16:10:11.221Z,38.90
2019-04-14T16:12:58.062Z,39.20
2019-04-14T16:15:43.668Z,39.40
2019-04-14T16:18:31.759Z,39.80
2019-04-14T16:20:59.088Z,39.90
2019-04-14T16:23:26.401Z,39.90
2019-04-14T16:26:16.077Z,39.80
2019-04-14T16:29:02.977Z,40.00
2019-04-14T16:31:44.101Z,40.10
2019-04-14T16:34:14.706Z,40.60
2019-04-14T16:36:43.077Z,41.10
2019-04-14T16:39:10.325Z,42.20
2019-04-14T16:41:37.635Z,42.80
2019-04-14T16:44:04.913Z,43.30
2019-04-14T16:46:32.210Z,43.60
2019-04-14T16:48:59.431Z,43.80
2019-04-14T16:51:31.093Z,43.90
2019-04-14T16:54:03.223Z,44.10
2019-04-14T16:56:48.701Z,44.30
2019-04-14T16:59:16.377Z,44.50
2019-04-14T17:01:45.757Z,44.80
2019-04-14T17:04:13.060Z,45.10
2019-04-14T17:06:40.396Z,45.60
2019-04-14T17:09:07.940Z,46.20
2019-04-14T17:11:35.289Z,46.60
2019-04-14T17:14:06.047Z,46.90
2019-04-14T17:16:43.665Z,46.90
2019-04-14T17:19:15.916Z,47.10
2019-04-14T17:21:50.843Z,47.40
2019-04-14T17:24:40.758Z,47.70
2019-04-14T17:27:28.006Z,48.00
2019-04-14T17:30:05.410Z,48.50
2019-04-14T17:32:55.039Z,48.80
2019-04-14T17:35:56.779Z,48.90
2019-04-14T17:38:35.765Z,49.10
2019-04-14T17:41:09.569Z,49.20
2019-04-14T17:43:47.577Z,49.30
2019-04-14T17:46:34.718Z,49.40
2019-04-14T17:49:25.189Z,49.50
2019-04-14T17:52:12.121Z,49.70
2019-04-14T17:54:59.004Z,50.30
2019-04-14T17:57:57.973Z,50.80
2019-04-14T18:00:30.965Z,50.90
2019-04-14T18:03:01.607Z,51.00
2019-04-14T18:05:42.085Z,50.90
2019-04-14T18:08:28.934Z,50.90
2019-04-14T18:11:08.001Z,50.70
2019-04-14T18:13:54.837Z,50.70
2019-04-14T18:16:32.851Z,50.80
2019-04-14T18:19:13.573Z,50.90
2019-04-14T18:21:44.251Z,51.00
2019-04-14T18:24:11.646Z,51.40
2019-04-14T18:26:38.820Z,51.80
2019-04-14T18:29:26.937Z,52.30
2019-04-14T18:32:12.342Z,53.10
2019-04-14T18:34:45.150Z,54.10
2019-04-14T18:37:27.180Z,55.20
2019-04-14T18:40:16.884Z,55.60
2019-04-14T18:42:58.575Z,56.30
2019-04-14T18:45:48.648Z,56.60
2019-04-14T18:48:35.548Z,57.20
2019-04-14T18:51:22.374Z,57.50
2019-04-14T18:54:08.158Z,57.80
2019-04-14T18:56:54.993Z,58.00
2019-04-14T18:59:40.320Z,58.10
2019-04-14T19:02:08.896Z,58.30
2019-04-14T19:04:36.119Z,58.50
2019-04-14T19:07:03.454Z,58.70
2019-04-14T19:09:30.780Z,59.30
2019-04-14T19:12:23.144Z,59.50
2019-04-14T19:14:53.613Z,59.60
2019-04-14T19:17:40.449Z,59.70
2019-04-14T19:20:07.768Z,59.70
2019-04-14T19:22:34.992Z,59.90
2019-04-14T19:25:08.376Z,60.20
2019-04-14T19:27:31.643Z,60.60
2019-04-14T19:29:58.956Z,60.70
2019-04-14T19:32:26.265Z,61.00
2019-04-14T19:34:53.600Z,61.30
2019-04-14T19:37:21.070Z,61.60
2019-04-14T19:39:48.393Z,61.80
2019-04-14T19:42:15.803Z,62.00
2019-04-14T19:44:43.106Z,62.00
2019-04-14T19:47:10.320Z,62.30
2019-04-14T19:49:37.632Z,62.40
2019-04-14T19:52:04.992Z,62.90
2019-04-14T19:54:32.312Z,63.10
2019-04-14T19:56:59.651Z,63.30
2019-04-14T19:59:27.020Z,63.30
2019-04-14T20:01:54.362Z,63.40
2019-04-14T20:04:21.698Z,63.30
2019-04-14T20:06:49.052Z,64.10
2019-04-14T20:09:16.373Z,64.10
2019-04-14T20:11:43.686Z,63.90
2019-04-14T20:14:11.014Z,63.80
2019-04-14T20:16:45.600Z,63.90
2019-04-14T20:19:30.584Z,63.90
2019-04-14T20:22:16.150Z,64.00
2019-04-14T20:25:11.894Z,64.10
2019-04-14T20:27:44.618Z,64.00
2019-04-14T20:30:16.648Z,64.30
2019-04-14T20:32:44.160Z,64.30
2019-04-14T20:35:12.245Z,64.40
2019-04-14T20:37:39.643Z,64.40
2019-04-14T20:40:07.685Z,64.60
2019-04-14T20:42:36.593Z,64.90
2019-04-14T20:45:05.639Z,65.10
2019-04-14T20:47:32.972Z,65.20
2019-04-14T20:50:00.386Z,65.50
2019-04-14T20:52:27.687Z,65.60
2019-04-14T20:54:55.019Z,65.90
2019-04-14T20:57:22.251Z,66.00
2019-04-14T20:59:49.597Z,66.10
2019-04-14T21:02:36.553Z,66.30
2019-04-14T21:05:22.297Z,66.50
2019-04-14T21:08:21.831Z,66.80
2019-04-14T21:11:02.664Z,67.10
2019-04-14T21:13:58.685Z,67.10
2019-04-14T21:16:36.012Z,67.40
2019-04-14T21:19:08.696Z,67.50
2019-04-14T21:21:49.504Z,67.70
2019-04-14T21:24:48.233Z,67.90
2019-04-14T21:27:35.851Z,68.20
2019-04-14T21:30:36.136Z,68.30
2019-04-14T21:33:18.466Z,68.70
2019-04-14T21:35:52.948Z,69.30
2019-04-14T21:38:38.728Z,69.70
2019-04-14T21:41:10.982Z,69.90
2019-04-14T21:43:39.386Z,70.20
2019-04-14T21:46:06.637Z,70.40
2019-04-14T21:48:33.975Z,70.70
2019-04-14T21:51:01.197Z,71.00
2019-04-14T21:53:28.580Z,71.40
2019-04-14T21:55:56.016Z,71.70
2019-04-14T21:58:48.622Z,72.30
2019-04-14T22:01:50.636Z,72.60
2019-04-14T22:04:52.704Z,72.90
2019-04-14T22:07:42.121Z,73.10
2019-04-14T22:10:18.143Z,73.40
2019-04-14T22:12:47.096Z,73.80
2019-04-14T22:15:14.342Z,74.20
2019-04-14T22:17:41.690Z,74.40
2019-04-14T22:20:09.001Z,74.80
2019-04-14T22:22:36.234Z,75.00
2019-04-14T22:25:03.910Z,75.00
2019-04-14T22:27:31.232Z,75.10
2019-04-14T22:29:58.542Z,75.30
2019-04-14T22:32:25.869Z,75.50
2019-04-14T22:34:53.180Z,75.60
2019-04-14T22:37:20.566Z,75.80
2019-04-14T22:39:47.858Z,76.10
2019-04-14T22:42:15.205Z,76.20
2019-04-14T22:44:42.526Z,76.30
2019-04-14T22:47:09.767Z,76.40
2019-04-14T22:49:37.083Z,76.70
2019-04-14T22:52:04.821Z,76.90
2019-04-14T22:54:32.186Z,77.80
2019-04-14T22:56:59.422Z,77.10
2019-04-14T22:59:26.760Z,77.30
2019-04-14T23:02:01.575Z,77.30
2019-04-14T23:04:44.316Z,77.30
2019-04-14T23:07:42.870Z,77.30
2019-04-14T23:10:25.615Z,77.30
2019-04-14T23:13:03.699Z,77.20
2019-04-14T23:15:50.651Z,77.30
2019-04-14T23:18:28.566Z,77.40
2019-04-14T23:21:04.500Z,77.60
2019-04-14T23:23:38.126Z,77.80
2019-04-14T23:26:05.440Z,77.80
2019-04-14T23:28:32.772Z,77.90
2019-04-14T23:31:01.754Z,77.90
2019-04-14T23:33:29.262Z,77.90
2019-04-14T23:35:56.582Z,77.90
2019-04-14T23:38:23.884Z,77.90
2019-04-14T23:40:51.260Z,78.10
2019-04-14T23:43:18.489Z,78.30
2019-04-14T23:45:45.902Z,78.60
2019-04-14T23:48:13.260Z,78.60
2019-04-14T23:50:40.641Z,78.60
2019-04-14T23:53:07.962Z,78.60
2019-04-14T23:55:35.303Z,78.60
2019-04-14T23:58:02.626Z,78.50
